Kezdőlap
METAR-TAF:

METAR-TAF

Repülőterek :

Montevideo-Chippewa County Airport

Montevideo, Minnesota, Amerikai Egyesült Államok

földrajzi szélesség: 44-58N, földrajzi hosszúság: 095-43W, magasság: 315 m

Jelenlegi meteorológiai megfigyelések

A jelentés 15 perccel ezelõtt készült, 16:15 UTC
Szélcsend
Hőmérséklet 13°C
Páratartalom 18%
Légköri nyomás 1030 hPa
Látótávolság: 16.1 km
Derült ég

METAR: KMVE 111615Z AUTO 00000KT 10SM CLR 13/M11 A3041 RMK AO2

Idő: 11:30 (16:30 UTC)


TAF: hiányzik

Meteorológiai megfigyelések és előrejelzések több, mint 4000 repülőtéren (METAR és TAF jelentéseket).

A térképen piros és sárga pontok jelzik az elérhető meteorológiai állomásokat.

Mozgassa az egeret a pont fölött, hogy megjelenjen az állomás neve.

Azután kattintson az időjárási megfigyelések és előrejelzések megtekintéséhez.

A térkép megváltoztatása: kattintson a fekete keresztel jelölt zöld gombra ráközelítéshez, a vonallal jelölt zöld gombra távolításhoz, vagy a zöld nyilakra a szomszédos térképek eléréséhez.


METAR-TAF: